Time;durP1;ratioP1;P1;durP2;ratioP2;P2;SDS_P1;SDS_P2;PMS_P1;PMS_P2;Temp;Humidity;BMP_temperature;BMP_pressure;BME280_temperature;BME280_humidity;BME280_pressure;Samples;Min_cycle;Max_cycle;Signal;HPM_P1;HPM_P2
2022/03/27 00:01:28;;;;;;;;;34.67;32.00;;;;;29.19;17.77;102207.97;5057075;28;45447;-76
2022/03/27 00:03:54;;;;;;;;;44.33;32.00;;;;;29.32;17.67;102236.66;5057062;28;46059;-76
2022/03/27 00:06:19;;;;;;;;;31.67;28.00;;;;;29.32;17.80;102241.25;5057079;28;45371;-76
2022/03/27 00:08:44;;;;;;;;;40.00;34.00;;;;;29.35;17.79;102239.31;5057049;28;45361;-76
2022/03/27 00:11:26;;;;;;;;;34.67;30.33;;;;;29.24;17.84;102233.31;5057095;28;45411;-76
2022/03/27 00:13:54;;;;;;;;;35.67;32.00;;;;;29.22;18.06;102238.81;5056899;28;45432;-76
2022/03/27 00:16:20;;;;;;;;;37.00;33.67;;;;;29.04;18.04;102210.31;5055637;28;45393;-75
2022/03/27 00:18:45;;;;;;;;;38.33;33.67;;;;;29.16;18.01;102221.75;5056756;28;45377;-76
2022/03/27 00:21:11;;;;;;;;;39.67;32.33;;;;;29.16;18.01;102229.97;5056871;28;45677;-76
2022/03/27 00:23:37;;;;;;;;;42.00;35.00;;;;;29.19;18.06;102233.47;5056973;28;45565;-76
2022/03/27 00:26:03;;;;;;;;;35.33;34.00;;;;;29.07;17.73;102223.88;5056916;28;45417;-76
2022/03/27 00:28:32;;;;;;;;;39.67;32.33;;;;;29.00;17.83;102214.13;5056616;28;45471;-76
2022/03/27 00:31:02;;;;;;;;;41.33;31.33;;;;;29.09;17.85;102230.16;5057025;28;46088;-76
2022/03/27 00:33:28;;;;;;;;;36.00;32.00;;;;;29.06;17.88;102241.19;5056210;28;46142;-76
2022/03/27 00:35:54;;;;;;;;;28.33;27.67;;;;;28.74;17.81;102190.44;5056614;28;45341;-76
2022/03/27 00:38:20;;;;;;;;;39.67;33.00;;;;;29.00;18.23;102235.97;5056791;28;45470;-76
2022/03/27 00:40:45;;;;;;;;;38.67;31.67;;;;;28.83;18.17;102217.44;5056409;28;45414;-76
2022/03/27 00:43:11;;;;;;;;;38.33;31.67;;;;;28.86;18.31;102216.41;5056623;28;45437;-76
2022/03/27 00:45:36;;;;;;;;;43.33;35.33;;;;;28.91;18.23;102234.44;5055104;28;45575;-77
2022/03/27 00:48:02;;;;;;;;;37.00;33.00;;;;;28.87;18.09;102230.00;5056349;28;45795;-76
2022/03/27 00:50:29;;;;;;;;;39.00;32.00;;;;;28.60;18.36;102184.53;5056308;28;45278;-76
2022/03/27 00:52:55;;;;;;;;;39.00;32.67;;;;;28.81;18.36;102213.84;5056441;28;46700;-76
2022/03/27 00:55:20;;;;;;;;;38.67;33.33;;;;;28.34;18.30;102118.03;5056255;28;45486;-76
2022/03/27 00:57:45;;;;;;;;;38.33;31.33;;;;;28.64;18.39;102198.03;5056422;28;45396;-76
2022/03/27 01:00:37;;;;;;;;;40.00;34.67;;;;;28.93;18.25;102228.94;5056231;28;45435;-76
2022/03/27 01:03:05;;;;;;;;;39.00;34.00;;;;;28.82;18.63;102214.72;5052653;28;45592;-76
2022/03/27 01:05:30;;;;;;;;;44.00;34.00;;;;;28.82;18.03;102212.00;5053727;28;45241;-77
2022/03/27 01:07:56;;;;;;;;;37.00;33.00;;;;;28.77;18.34;102211.28;5054920;28;45357;-76
2022/03/27 01:10:25;;;;;;;;;41.00;35.00;;;;;28.86;18.35;102222.78;5055588;28;45553;-76
2022/03/27 01:12:50;;;;;;;;;40.67;32.67;;;;;28.66;18.24;102211.66;5055614;28;46124;-76
2022/03/27 01:15:43;;;;;;;;;35.00;32.00;;;;;28.77;18.34;102222.22;5050775;28;45451;-76
2022/03/27 01:18:09;;;;;;;;;40.00;34.00;;;;;28.59;18.75;102202.72;5035257;28;45318;-75
2022/03/27 01:20:38;;;;;;;;;43.33;33.67;;;;;28.65;18.63;102218.94;5035309;28;45488;-75
2022/03/27 01:23:09;;;;;;;;;45.00;32.00;;;;;28.49;18.48;102188.50;5039808;28;48140;-75
2022/03/27 01:25:35;;;;;;;;;45.33;35.00;;;;;28.48;18.67;102192.19;5055359;28;45545;-75
2022/03/27 01:28:00;;;;;;;;;40.00;34.00;;;;;28.60;18.71;102196.34;5055600;28;45502;-76
2022/03/27 01:30:27;;;;;;;;;41.67;34.00;;;;;28.42;18.57;102145.97;5055369;28;45534;-76
2022/03/27 01:32:53;;;;;;;;;41.67;33.67;;;;;28.45;18.89;102181.34;5054937;28;46603;-76
2022/03/27 01:35:19;;;;;;;;;39.67;34.33;;;;;28.48;18.86;102194.00;5055406;28;45433;-75
2022/03/27 01:37:48;;;;;;;;;36.67;32.00;;;;;28.54;18.77;102200.16;5055473;28;45433;-75
2022/03/27 01:40:13;;;;;;;;;38.33;32.00;;;;;28.47;18.83;102181.31;5055376;28;45377;-76
2022/03/27 01:42:39;;;;;;;;;41.00;34.00;;;;;28.56;19.15;102201.03;5055034;28;46045;-76
2022/03/27 01:45:05;;;;;;;;;45.67;35.00;;;;;28.58;18.81;102195.50;5055506;28;45506;-76
2022/03/27 01:47:31;;;;;;;;;39.00;34.33;;;;;28.45;18.66;102161.34;5055065;28;45337;-76
2022/03/27 01:49:56;;;;;;;;;39.33;34.33;;;;;28.58;18.87;102190.94;5055087;28;45341;-75
2022/03/27 01:52:22;;;;;;;;;40.00;32.00;;;;;28.62;19.04;102193.53;5055304;28;46264;-75
2022/03/27 01:54:50;;;;;;;;;46.33;37.33;;;;;28.36;19.15;102152.53;5055096;28;45361;-76
2022/03/27 01:57:15;;;;;;;;;41.00;34.33;;;;;28.38;19.01;102147.94;5055276;28;45377;-76
2022/03/27 01:59:41;;;;;;;;;37.00;33.67;;;;;28.33;19.17;102158.09;5055148;28;45365;-76
2022/03/27 02:02:06;;;;;;;;;37.67;31.00;;;;;28.44;19.06;102162.28;5054648;28;46092;-75
2022/03/27 02:04:32;;;;;;;;;31.67;28.00;;;;;28.50;19.05;102178.50;5054946;28;45583;-76
2022/03/27 02:06:57;;;;;;;;;46.33;34.00;;;;;28.37;19.35;102173.44;5055154;28;45371;-75
2022/03/27 02:09:22;;;;;;;;;40.33;34.67;;;;;28.38;19.46;102179.78;5055061;28;45570;-76
2022/03/27 02:11:48;;;;;;;;;42.33;34.00;;;;;28.40;19.39;102169.72;5054528;28;46621;-76
2022/03/27 02:14:13;;;;;;;;;38.67;34.00;;;;;28.50;19.26;102183.94;5054778;28;45472;-76
2022/03/27 02:16:39;;;;;;;;;40.00;33.67;;;;;28.30;19.37;102147.28;5054486;28;45316;-76
2022/03/27 02:19:09;;;;;;;;;37.67;33.67;;;;;28.45;19.40;102172.28;5054968;28;45356;-75
2022/03/27 02:21:36;;;;;;;;;34.00;29.00;;;;;28.45;19.21;102180.47;5054530;28;45485;-76
2022/03/27 02:24:05;;;;;;;;;30.67;30.67;;;;;28.27;19.49;102152.84;5053403;28;45399;-76
2022/03/27 02:26:31;;;;;;;;;49.67;37.00;;;;;28.16;19.33;102149.59;5054560;28;45444;-76
2022/03/27 02:28:56;;;;;;;;;46.67;36.67;;;;;28.39;19.50;102170.66;5054405;28;45440;-76
2022/03/27 02:31:22;;;;;;;;;42.00;34.00;;;;;28.15;19.19;102134.16;5054526;28;45463;-76
2022/03/27 02:33:50;;;;;;;;;44.67;37.33;;;;;28.37;19.46;102172.56;5054483;28;45282;-76
2022/03/27 02:36:16;;;;;;;;;41.67;34.00;;;;;28.34;19.38;102181.72;5057345;28;45333;-76
2022/03/27 02:38:43;;;;;;;;;44.67;36.33;;;;;28.01;19.39;102115.50;5058022;28;45379;-76
2022/03/27 02:41:09;;;;;;;;;39.67;33.67;;;;;28.16;19.29;102135.94;5058207;28;46116;-76
2022/03/27 02:43:38;;;;;;;;;33.67;29.00;;;;;28.01;19.24;102123.69;5057787;28;45880;-76
2022/03/27 02:46:04;;;;;;;;;44.33;35.00;;;;;28.09;19.28;102139.78;5058231;28;45314;-76
2022/03/27 02:48:30;;;;;;;;;40.33;34.33;;;;;28.19;19.72;102176.78;5058046;28;45400;-77
2022/03/27 02:50:55;;;;;;;;;40.33;35.00;;;;;28.19;19.81;102174.03;5057480;28;46330;-77
2022/03/27 02:53:21;;;;;;;;;44.00;34.33;;;;;28.20;19.66;102184.03;5057973;28;45361;-76
2022/03/27 02:55:46;;;;;;;;;38.00;32.33;;;;;27.95;19.95;102154.75;5057852;28;45790;-76
2022/03/27 02:58:11;;;;;;;;;40.33;36.00;;;;;27.99;19.79;102163.75;5057420;28;51318;-77
2022/03/27 03:00:37;;;;;;;;;36.33;30.33;;;;;27.83;20.05;102146.97;5057703;28;46425;-76
2022/03/27 03:03:02;;;;;;;;;37.67;33.33;;;;;27.97;20.12;102177.41;5057735;28;45516;-76
2022/03/27 03:05:28;;;;;;;;;41.00;33.00;;;;;27.45;20.22;102098.13;5058070;28;45677;-76
2022/03/27 03:07:54;;;;;;;;;32.33;30.67;;;;;27.67;20.13;102143.81;5057706;28;45317;-76
2022/03/27 03:10:19;;;;;;;;;42.33;35.00;;;;;27.85;20.03;102177.81;5057963;28;45410;-77
2022/03/27 03:12:45;;;;;;;;;38.67;34.00;;;;;27.72;20.39;102159.09;5057026;28;45390;-76
2022/03/27 03:15:11;;;;;;;;;37.67;34.00;;;;;27.19;20.25;102071.66;5057843;28;45466;-77
2022/03/27 03:17:37;;;;;;;;;44.67;35.00;;;;;27.54;19.87;102119.66;5057648;28;45472;-78
2022/03/27 03:20:04;;;;;;;;;36.00;32.67;;;;;27.78;20.04;102174.38;5057489;28;45562;-77
2022/03/27 03:22:30;;;;;;;;;41.00;35.33;;;;;27.82;20.08;102186.97;5057368;28;45488;-77
2022/03/27 03:24:55;;;;;;;;;47.67;34.00;;;;;27.82;19.97;102178.81;5057592;28;45360;-77
2022/03/27 03:27:21;;;;;;;;;39.00;31.67;;;;;27.88;20.53;102183.16;5056952;28;45452;-76
2022/03/27 03:29:46;;;;;;;;;36.00;32.33;;;;;27.84;20.21;102165.13;5057360;28;45439;-77
2022/03/27 03:32:12;;;;;;;;;37.33;31.00;;;;;27.92;20.46;102178.50;5057406;28;45427;-76
2022/03/27 03:34:38;;;;;;;;;40.00;34.33;;;;;27.59;20.10;102146.78;5057393;28;45341;-76
2022/03/27 03:37:03;;;;;;;;;49.00;38.33;;;;;27.81;20.39;102184.31;5057323;28;45353;-76
2022/03/27 03:39:29;;;;;;;;;40.67;34.67;;;;;27.65;20.47;102148.41;5057177;28;45450;-76
2022/03/27 03:41:55;;;;;;;;;24.67;23.00;;;;;27.81;20.09;102178.84;5056797;28;45341;-76
2022/03/27 03:44:20;;;;;;;;;41.00;33.67;;;;;27.69;20.33;102175.56;5073059;28;45252;-76
2022/03/27 03:46:46;;;;;;;;;35.67;34.33;;;;;27.64;20.52;102147.53;5056546;28;45694;-78
2022/03/27 03:49:12;;;;;;;;;39.33;33.33;;;;;27.69;20.05;102161.00;5057172;28;45430;-77
2022/03/27 03:51:38;;;;;;;;;41.00;33.00;;;;;27.65;20.29;102153.88;5056816;28;45552;-78
2022/03/27 03:54:07;;;;;;;;;37.33;33.00;;;;;27.89;20.12;102184.97;5056910;28;45329;-77
2022/03/27 03:56:33;;;;;;;;;41.33;34.67;;;;;27.92;20.14;102184.88;5056802;28;45456;-77
2022/03/27 03:58:59;;;;;;;;;32.33;31.33;;;;;27.59;19.98;102134.97;5055498;28;47727;-76
2022/03/27 04:01:24;;;;;;;;;28.67;28.00;;;;;27.64;20.01;102157.56;5056922;28;45372;-77
2022/03/27 04:03:49;;;;;;;;;36.00;33.00;;;;;27.65;20.25;102154.78;5056841;28;45266;-78
2022/03/27 04:06:16;;;;;;;;;35.00;32.33;;;;;27.86;20.04;102168.66;5056953;28;45417;-77
2022/03/27 04:08:41;;;;;;;;;34.00;31.67;;;;;27.86;20.21;102187.75;5056736;28;45363;-77
2022/03/27 04:11:06;;;;;;;;;42.00;34.00;;;;;27.81;19.92;102173.41;5056371;28;45383;-77
2022/03/27 04:13:32;;;;;;;;;37.67;33.00;;;;;27.72;20.08;102175.47;5056966;28;45370;-77
2022/03/27 04:15:57;;;;;;;;;38.33;35.00;;;;;27.69;20.19;102183.75;5056683;28;45480;-77
2022/03/27 04:18:24;;;;;;;;;40.67;36.00;;;;;27.65;20.20;102178.41;5056885;28;46801;-77
2022/03/27 04:20:49;;;;;;;;;40.00;35.00;;;;;27.65;20.31;102189.31;5056511;28;45327;-77
2022/03/27 04:23:15;;;;;;;;;36.33;32.00;;;;;27.58;20.42;102175.00;5056539;28;45258;-77
2022/03/27 04:25:40;;;;;;;;;35.00;29.33;;;;;27.55;20.40;102183.22;5056340;28;45611;-78
2022/03/27 04:28:08;;;;;;;;;31.00;31.00;;;;;27.51;20.67;102185.19;5056313;28;45864;-77
2022/03/27 04:30:34;;;;;;;;;36.00;30.67;;;;;27.52;20.39;102192.44;5056672;28;45496;-77
2022/03/27 04:33:00;;;;;;;;;37.00;30.33;;;;;27.30;20.54;102151.25;5056295;28;45438;-77
2022/03/27 04:35:25;;;;;;;;;37.67;33.00;;;;;27.08;20.76;102131.00;5056579;28;45394;-77
2022/03/27 04:37:51;;;;;;;;;28.00;25.33;;;;;27.26;20.46;102163.16;5056141;28;45787;-77
2022/03/27 04:40:17;;;;;;;;;33.67;31.33;;;;;27.33;20.74;102186.56;5056093;28;45473;-77
2022/03/27 04:42:43;;;;;;;;;29.00;29.00;;;;;27.26;20.89;102179.50;5056385;28;45475;-77
2022/03/27 04:45:10;;;;;;;;;28.67;27.33;;;;;27.27;20.74;102189.47;5056250;28;45423;-77
2022/03/27 04:47:35;;;;;;;;;31.00;26.33;;;;;27.15;20.42;102168.03;5056070;28;45403;-77
2022/03/27 04:50:02;;;;;;;;;38.00;29.00;;;;;27.30;20.86;102197.56;5055629;28;45565;-77
2022/03/27 04:52:27;;;;;;;;;34.67;30.67;;;;;27.29;20.29;102201.22;5056398;28;45420;-77
2022/03/27 04:54:53;;;;;;;;;32.00;27.33;;;;;27.18;21.00;102177.00;5055730;28;45479;-77
2022/03/27 04:57:19;;;;;;;;;33.67;30.33;;;;;27.43;20.58;102191.81;5055408;28;46297;-78
2022/03/27 04:59:44;;;;;;;;;31.33;29.33;;;;;27.02;20.67;102140.25;5055381;28;45425;-77
2022/03/27 05:02:10;;;;;;;;;30.00;29.67;;;;;27.23;21.01;102193.22;5056065;28;45476;-77
2022/03/27 05:04:37;;;;;;;;;34.00;27.00;;;;;27.24;20.96;102197.72;5056089;28;45379;-77
2022/03/27 05:07:03;;;;;;;;;33.67;31.00;;;;;27.33;20.56;102211.09;5055585;28;45957;-77
2022/03/27 05:09:29;;;;;;;;;38.00;33.33;;;;;27.28;20.65;102198.53;5055349;28;45405;-77
2022/03/27 05:11:55;;;;;;;;;40.33;33.33;;;;;27.17;20.80;102188.84;5055763;28;45325;-77
2022/03/27 05:14:20;;;;;;;;;27.33;26.33;;;;;27.16;20.95;102200.66;5056096;28;45252;-77
2022/03/27 05:16:46;;;;;;;;;31.67;29.33;;;;;27.19;20.85;102200.56;5055401;28;45374;-77
2022/03/27 05:19:11;;;;;;;;;34.00;27.67;;;;;26.95;20.99;102147.69;5055609;28;45397;-76
2022/03/27 05:21:37;;;;;;;;;33.67;31.67;;;;;27.30;20.73;102223.91;5055848;28;45352;-77
2022/03/27 05:24:03;;;;;;;;;30.00;27.67;;;;;27.19;20.94;102208.75;5055215;28;45626;-77
2022/03/27 05:26:28;;;;;;;;;30.67;28.00;;;;;26.98;21.09;102160.31;5055602;28;46332;-77
2022/03/27 05:28:54;;;;;;;;;32.67;29.33;;;;;27.08;20.83;102193.66;5055294;28;45317;-77
2022/03/27 05:31:21;;;;;;;;;30.33;29.00;;;;;27.04;20.85;102195.56;5055657;28;45428;-77
2022/03/27 05:33:46;;;;;;;;;32.00;31.00;;;;;27.22;20.85;102222.28;5055322;28;45474;-77
2022/03/27 05:36:12;;;;;;;;;26.67;24.67;;;;;27.36;21.07;102224.66;5055258;28;46333;-78
2022/03/27 05:38:40;;;;;;;;;33.67;30.67;;;;;27.29;21.06;102217.56;5054912;28;45666;-77
2022/03/27 05:41:06;;;;;;;;;30.67;26.33;;;;;27.28;20.56;102193.97;5055162;28;45494;-78
2022/03/27 05:43:33;;;;;;;;;26.33;26.00;;;;;27.30;20.94;102219.38;5055547;28;45399;-77
2022/03/27 05:45:58;;;;;;;;;33.00;29.00;;;;;27.24;20.62;102214.06;5054737;28;45498;-77
2022/03/27 05:48:24;;;;;;;;;31.00;28.33;;;;;27.39;20.54;102223.69;5055254;28;45447;-77
2022/03/27 05:50:49;;;;;;;;;28.33;27.67;;;;;27.41;21.06;102226.38;5055221;28;45871;-77
2022/03/27 05:53:15;;;;;;;;;27.67;24.33;;;;;27.15;20.94;102187.09;5054847;28;45436;-77
2022/03/27 05:55:41;;;;;;;;;26.67;23.67;;;;;27.33;20.88;102222.00;5055262;28;46194;-77
2022/03/27 05:58:07;;;;;;;;;28.33;25.00;;;;;27.35;20.69;102233.75;5055091;28;45482;-76
2022/03/27 06:00:33;;;;;;;;;30.67;26.67;;;;;27.44;20.71;102232.63;5055297;28;45499;-76
2022/03/27 06:02:59;;;;;;;;;35.33;29.33;;;;;27.41;20.78;102229.97;5055153;28;45585;-76
2022/03/27 06:05:26;;;;;;;;;26.33;24.67;;;;;27.29;21.14;102220.28;5053434;28;48240;-78
2022/03/27 06:07:54;;;;;;;;;26.67;24.67;;;;;27.44;21.08;102239.91;5054595;28;45344;-78
2022/03/27 06:10:31;;;;;;;;;29.00;26.67;;;;;27.44;20.91;102239.91;5054888;28;45472;-77
2022/03/27 06:12:58;;;;;;;;;31.00;25.00;;;;;27.33;20.95;102230.16;5054996;28;45747;-78
2022/03/27 06:15:25;;;;;;;;;28.67;26.67;;;;;27.46;20.96;102233.47;5053086;28;46046;-78
2022/03/27 06:17:52;;;;;;;;;30.00;25.33;;;;;27.24;20.67;102218.63;5065172;28;45335;-78
2022/03/27 06:20:21;;;;;;;;;31.67;26.33;;;;;27.45;20.64;102239.84;5053071;27;45365;-78
2022/03/27 06:22:47;;;;;;;;;29.67;26.33;;;;;27.47;20.85;102248.03;5054301;28;45475;-77
2022/03/27 06:25:18;;;;;;;;;29.33;27.33;;;;;27.59;20.61;102242.19;5039000;28;46204;-79
2022/03/27 06:27:43;;;;;;;;;33.33;30.33;;;;;27.31;20.78;102193.00;5036998;28;45521;-78
2022/03/27 06:30:12;;;;;;;;;30.33;27.00;;;;;27.63;20.63;102241.16;5042878;28;45510;-77
2022/03/27 06:32:38;;;;;;;;;31.33;28.33;;;;;27.60;20.78;102227.63;5041341;28;46584;-78
2022/03/27 06:35:07;;;;;;;;;29.67;27.67;;;;;27.77;20.67;102254.41;5037999;28;45736;-77
2022/03/27 06:37:33;;;;;;;;;33.67;29.67;;;;;27.45;20.75;102207.16;5029896;28;45525;-78
2022/03/27 06:39:59;;;;;;;;;29.33;28.33;;;;;27.69;20.94;102254.63;5025911;28;45596;-80
2022/03/27 06:42:28;;;;;;;;;28.00;28.00;;;;;27.51;20.79;102227.88;5036523;28;45657;-81
2022/03/27 06:44:54;;;;;;;;;23.67;23.33;;;;;27.01;20.69;102150.22;5033395;28;45400;-83
2022/03/27 06:47:21;;;;;;;;;28.67;23.00;;;;;27.61;21.01;102256.69;5039757;28;45618;-83
2022/03/27 06:49:48;;;;;;;;;33.33;27.00;;;;;27.72;20.79;102251.81;5042215;28;45566;-80
2022/03/27 06:52:14;;;;;;;;;31.33;30.67;;;;;27.72;20.14;102245.44;5027361;28;45611;-84
2022/03/27 06:54:40;;;;;;;;;30.00;28.33;;;;;27.78;20.28;102255.28;5032836;28;46284;-82
2022/03/27 06:57:06;;;;;;;;;28.00;23.33;;;;;27.73;20.75;102239.97;5031587;28;45575;-83
2022/03/27 07:03:01;;;;;;;;;28.67;24.67;;;;;27.80;20.58;102247.97;5034406;28;45387;-83
2022/03/27 07:05:02;;;;;;;;;27.00;24.00;;;;;27.92;20.37;102261.25;5030565;28;45754;-82
2022/03/27 07:07:28;;;;;;;;;30.67;30.67;;;;;27.68;20.88;102232.88;5028158;28;45420;-83
2022/03/27 07:09:53;;;;;;;;;33.33;29.33;;;;;27.36;20.79;102167.44;5043400;28;45789;-83
2022/03/27 07:12:19;;;;;;;;;33.00;28.33;;;;;27.78;20.78;102247.09;5039566;28;45489;-85
2022/03/27 07:14:44;;;;;;;;;25.67;23.33;;;;;27.17;20.67;102114.38;5041416;28;45487;-85
2022/03/27 07:17:10;;;;;;;;;24.33;23.33;;;;;27.68;20.57;102209.22;5036855;28;45521;-77
2022/03/27 07:19:35;;;;;;;;;35.67;29.00;;;;;27.99;20.59;102251.03;5049865;27;45582;-78
2022/03/27 07:22:01;;;;;;;;;28.67;27.33;;;;;27.59;20.55;102171.31;5040244;28;45397;-80
2022/03/27 07:24:27;;;;;;;;;34.67;32.33;;;;;28.07;20.66;102254.44;5036627;28;45526;-77
2022/03/27 07:26:53;;;;;;;;;33.33;27.00;;;;;28.01;20.56;102241.88;5036765;28;46993;-84
2022/03/27 07:29:18;;;;;;;;;29.33;27.00;;;;;27.63;20.46;102174.84;5034757;28;45538;-76
2022/03/27 07:31:43;;;;;;;;;30.67;28.00;;;;;27.83;20.45;102243.31;5044450;28;46031;-76
2022/03/27 07:34:10;;;;;;;;;33.00;30.33;;;;;28.06;20.18;102247.22;5034595;28;47156;-77
2022/03/27 07:36:36;;;;;;;;;24.00;20.33;;;;;27.83;20.66;102221.50;5038197;28;45482;-76
2022/03/27 07:39:01;;;;;;;;;34.67;29.33;;;;;28.19;20.37;102264.97;5037363;28;45409;-76
2022/03/27 07:41:26;;;;;;;;;28.00;24.67;;;;;28.14;20.60;102271.50;5038663;28;45440;-79
2022/03/27 07:43:52;;;;;;;;;25.00;24.67;;;;;28.13;20.70;102264.25;5048019;28;45769;-77
2022/03/27 07:46:17;;;;;;;;;32.00;30.67;;;;;28.26;20.40;102273.88;5046493;28;45466;-78
2022/03/27 07:48:42;;;;;;;;;29.33;26.67;;;;;28.19;20.51;102281.34;5039864;28;45407;-78
2022/03/27 07:51:08;;;;;;;;;32.33;29.00;;;;;28.20;20.53;102274.06;5043563;28;45475;-78
2022/03/27 07:53:34;;;;;;;;;34.33;29.00;;;;;28.25;20.14;102272.06;5032085;28;45992;-78
2022/03/27 07:55:59;;;;;;;;;26.33;26.33;;;;;28.31;20.40;102279.19;5046842;28;45601;-78
2022/03/27 07:58:24;;;;;;;;;30.67;26.33;;;;;28.33;20.34;102261.81;5033008;28;45505;-78
2022/03/27 08:00:50;;;;;;;;;21.33;20.00;;;;;28.47;20.09;102282.34;5036584;28;45451;-78
2022/03/27 08:03:15;;;;;;;;;32.00;26.00;;;;;28.41;20.27;102251.56;5038884;28;46029;-77
2022/03/27 08:05:42;;;;;;;;;33.67;30.00;;;;;28.42;20.16;102249.69;5044627;28;45537;-77
2022/03/27 08:08:07;;;;;;;;;33.33;28.33;;;;;28.41;20.14;102243.38;5041204;28;45436;-78
2022/03/27 08:10:33;;;;;;;;;32.33;29.33;;;;;28.47;20.23;102260.50;5037290;28;45400;-83
2022/03/27 08:12:59;;;;;;;;;28.33;26.67;;;;;28.41;20.13;102250.66;5035757;28;45574;-78
2022/03/27 08:15:25;;;;;;;;;29.67;26.67;;;;;28.59;20.11;102276.44;5039928;28;45482;-76
2022/03/27 08:17:53;;;;;;;;;30.00;26.00;;;;;28.57;20.32;102251.06;5043540;28;45446;-78
2022/03/27 08:20:19;;;;;;;;;36.50;29.00;;;;;28.67;19.76;102254.41;5040523;28;45649;-79
2022/03/27 08:22:45;;;;;;;;;30.00;26.67;;;;;28.87;19.93;102272.84;5042248;28;46095;-78
2022/03/27 08:26:55;;;;;;;;;30.00;25.67;;;;;28.83;19.95;102260.22;5037461;28;45512;-81
2022/03/27 08:27:57;;;;;;;;;28.67;25.67;;;;;29.07;19.78;102278.53;5043246;28;45505;-78
2022/03/27 08:30:22;;;;;;;;;27.00;24.33;;;;;28.86;19.71;102262.84;5036279;28;45431;-78
2022/03/27 08:32:48;;;;;;;;;29.00;27.67;;;;;28.95;20.09;102278.94;5037736;28;45519;-77
2022/03/27 08:35:13;;;;;;;;;27.00;23.00;;;;;29.03;19.88;102285.03;5037532;28;45414;-78
2022/03/27 08:37:40;;;;;;;;;25.33;23.00;;;;;29.09;19.55;102289.41;5036122;28;45490;-77
2022/03/27 08:40:05;;;;;;;;;31.67;27.33;;;;;29.13;19.38;102285.63;5041824;28;45555;-76
2022/03/27 08:42:31;;;;;;;;;27.33;23.67;;;;;29.18;19.35;102279.97;5035235;28;46227;-76
2022/03/27 08:44:57;;;;;;;;;28.67;24.33;;;;;29.12;19.81;102282.94;5034791;28;45408;-77
2022/03/27 08:47:25;;;;;;;;;28.67;26.00;;;;;29.22;19.15;102257.06;5038369;28;45456;-76
2022/03/27 08:50:00;;;;;;;;;28.67;27.00;;;;;29.53;19.28;102280.59;5040017;28;45443;-79
2022/03/27 08:52:49;;;;;;;;;28.00;24.33;;;;;29.70;19.49;102282.69;5045161;28;46041;-78
2022/03/27 08:55:20;;;;;;;;;29.67;27.67;;;;;29.68;19.25;102282.75;5045044;28;45462;-76
2022/03/27 08:57:51;;;;;;;;;29.33;26.00;;;;;29.59;19.16;102283.06;5040537;28;45456;-73
2022/03/27 09:00:20;;;;;;;;;28.00;24.67;;;;;29.68;19.28;102281.88;5045066;28;45426;-75
2022/03/27 09:02:46;;;;;;;;;29.67;27.67;;;;;29.75;19.27;102276.09;5036646;28;45970;-75
2022/03/27 09:05:12;;;;;;;;;31.67;26.00;;;;;29.60;18.77;102216.50;5043716;28;45436;-75
2022/03/27 09:07:37;;;;;;;;;27.00;23.00;;;;;29.67;18.94;102255.47;5038446;28;45335;-80
2022/03/27 09:10:11;;;;;;;;;27.33;23.00;;;;;29.61;18.90;102256.59;5040899;27;45634;-76
2022/03/27 09:12:36;;;;;;;;;27.00;26.00;;;;;29.88;18.78;102300.28;5043383;27;46341;-76
2022/03/27 09:15:08;;;;;;;;;25.00;22.00;;;;;29.91;18.77;102300.16;5042082;28;45430;-76
2022/03/27 09:17:54;;;;;;;;;26.00;26.00;;;;;29.98;18.87;102295.38;5041710;28;45508;-76
2022/03/27 09:20:36;;;;;;;;;23.67;20.00;;;;;30.13;18.84;102292.03;5042767;28;45490;-76
2022/03/27 09:23:26;;;;;;;;;22.33;22.33;;;;;30.27;18.66;102303.31;5041114;28;46182;-76
2022/03/27 09:25:59;;;;;;;;;24.33;22.00;;;;;30.27;18.42;102273.22;5049453;28;45862;-76
2022/03/27 09:28:32;;;;;;;;;26.00;21.67;;;;;30.10;18.24;102253.84;5038827;28;45549;-77
2022/03/27 09:31:06;;;;;;;;;38.33;30.67;;;;;30.42;18.30;102301.81;5040804;28;45519;-76
2022/03/27 09:33:39;;;;;;;;;27.67;21.67;;;;;30.56;18.26;102300.38;5040455;28;46609;-77
2022/03/27 09:36:08;;;;;;;;;26.00;23.33;;;;;30.63;18.15;102296.44;5037792;28;45592;-77
2022/03/27 09:38:35;;;;;;;;;26.00;26.00;;;;;30.59;18.25;102287.47;5037625;27;45486;-76
2022/03/27 09:41:03;;;;;;;;;26.00;23.00;;;;;30.71;18.19;102299.75;5040995;28;45628;-81
2022/03/27 09:43:29;;;;;;;;;28.33;25.67;;;;;30.68;18.22;102268.88;5038961;28;46501;-76
2022/03/27 09:45:57;;;;;;;;;26.00;25.00;;;;;30.88;18.21;102298.16;5046546;28;45490;-79
2022/03/27 09:48:22;;;;;;;;;26.67;22.00;;;;;30.73;17.90;102278.69;5040704;28;45893;-84
2022/03/27 09:50:50;;;;;;;;;28.00;22.67;;;;;30.74;18.33;102265.88;5037100;28;45553;-83
2022/03/27 09:53:30;;;;;;;;;29.33;23.00;;;;;30.70;17.90;102256.88;5047418;28;46414;-77
2022/03/27 09:56:01;;;;;;;;;27.00;25.00;;;;;31.06;18.23;102294.66;5031653;28;45549;-78
2022/03/27 09:58:35;;;;;;;;;28.00;24.33;;;;;30.93;17.99;102285.16;5042218;28;46286;-83
2022/03/27 10:01:14;;;;;;;;;31.67;27.00;;;;;30.78;18.42;102243.75;5043131;28;45523;-83
2022/03/27 10:03:59;;;;;;;;;25.33;24.67;;;;;31.23;18.09;102287.56;5040651;28;46507;-74
2022/03/27 10:06:27;;;;;;;;;35.00;28.33;;;;;31.37;17.83;102289.69;5040364;28;45562;-80
2022/03/27 10:08:52;;;;;;;;;30.67;28.67;;;;;30.99;17.52;102202.69;5039804;28;45573;-79
2022/03/27 10:11:21;;;;;;;;;34.67;29.00;;;;;31.46;17.45;102281.94;5044687;28;46193;-79
2022/03/27 10:13:47;;;;;;;;;40.67;32.67;;;;;31.53;17.60;102278.91;5034116;28;45429;-80
2022/03/27 10:16:13;;;;;;;;;36.00;31.00;;;;;31.56;17.74;102284.25;5034424;28;45432;-78
2022/03/27 10:18:39;;;;;;;;;29.33;26.33;;;;;31.57;17.48;102267.72;5040334;28;45396;-74
2022/03/27 10:21:05;;;;;;;;;29.67;26.00;;;;;31.67;17.02;102270.97;5041681;28;45507;-78
2022/03/27 10:23:31;;;;;;;;;32.33;30.00;;;;;31.66;17.68;102271.03;5031934;28;46610;-76
2022/03/27 10:26:03;;;;;;;;;28.00;26.00;;;;;31.73;17.23;102254.25;5036459;28;45899;-77
2022/03/27 10:28:29;;;;;;;;;30.67;26.00;;;;;31.66;17.57;102233.53;5029128;28;45551;-78
2022/03/27 10:30:54;;;;;;;;;27.00;22.33;;;;;31.83;17.14;102262.94;5036920;28;45899;-78
2022/03/27 10:33:25;;;;;;;;;25.67;24.33;;;;;31.61;17.53;102246.56;5032070;28;46532;-74
2022/03/27 10:36:12;;;;;;;;;27.67;24.33;;;;;31.75;17.72;102251.44;5033044;28;45451;-75
2022/03/27 10:39:08;;;;;;;;;28.00;25.00;;;;;31.82;17.49;102250.16;5038195;28;45532;-75
2022/03/27 10:41:59;;;;;;;;;23.67;22.67;;;;;31.90;17.36;102255.28;5039958;28;45678;-77
2022/03/27 10:44:42;;;;;;;;;26.67;22.33;;;;;31.96;17.54;102249.50;5039936;28;46043;-77
2022/03/27 10:47:21;;;;;;;;;24.67;24.67;;;;;32.01;17.34;102243.78;5035620;28;45614;-78
2022/03/27 10:50:02;;;;;;;;;27.33;25.00;;;;;32.11;16.89;102239.63;5040088;28;45456;-81
2022/03/27 10:52:28;;;;;;;;;29.33;27.00;;;;;32.08;17.21;102246.19;5039854;28;45585;-79
2022/03/27 10:55:09;;;;;;;;;29.00;26.00;;;;;32.09;17.43;102201.28;5036586;28;45753;-80
2022/03/27 10:57:39;;;;;;;;;31.67;28.00;;;;;31.90;16.78;102186.66;5036079;28;45502;-78
2022/03/27 11:00:10;;;;;;;;;28.33;26.67;;;;;31.98;16.58;102200.91;5047089;28;45496;-78
2022/03/27 11:02:48;;;;;;;;;25.00;23.00;;;;;32.28;16.67;102223.25;5040530;28;45469;-78
2022/03/27 11:05:29;;;;;;;;;28.67;28.00;;;;;32.04;16.84;102217.09;5040910;28;46637;-77
2022/03/27 11:08:16;;;;;;;;;26.00;24.33;;;;;32.12;16.95;102214.88;5045855;28;45667;-79
2022/03/27 11:10:42;;;;;;;;;30.67;27.67;;;;;31.56;17.14;102138.88;5038630;28;45502;-79
2022/03/27 11:13:30;;;;;;;;;30.33;26.33;;;;;32.13;16.99;102207.50;5044824;28;45998;-77
2022/03/27 11:16:11;;;;;;;;;31.00;29.00;;;;;32.30;17.14;102209.44;5042752;28;46488;-78